»·PEaware :: SWA2787 KDEN-KTUS

SWA2787 :: KDEN-KTUS

FLIGHT INFORMATION

Flight Status: Arrived
Operator:
Southwest Airlines
More flights by this operator :: More flights under this callsign
Pilot: Tyler J. (19619)
Aircraft: BOEING 737-800
(B738)
More flights by this aircraft type
Origin: KDEN Denver Intl
United States
Destination: KTUS Tucson Intl
United States
More flights between these airports :: More routes between these airports
Route: SMMUR2 DAAYE TCS SSO ZONNA1
File this flight plan on PilotEdge
Remarks: RMK / SIMBRIEF
Altitude:
(Current/Filed)
34,000ft
Speed:
(Current/Filed)
458kts
Departed: 30-Oct-23 10:57 AM
Arrived: 30-Oct-23 12:39 PM
Distance/Time
Traveled:
555nm/1:42
Distance/Time
To Go:
Arrived

Flight Plot

Page will automatically refresh every two minutes.

Flight plan parsing failed; only flown route is shown


Map Options




Map Legend


Flown Route
Filed Route
Departure Airport
Arrival Airport
Navaid (VOR, NDB)
Fix

Horizontal Profiles

Position Reports

Time Latitude Longitude Heading Altitude Ground
Speed
30-Oct-23 10:33 39.863613 -104.674722 197 5365ft 0kts
30-Oct-23 10:34 39.863613 -104.674722 197 5365ft 0kts
30-Oct-23 10:35 39.863613 -104.674722 197 5365ft 0kts
30-Oct-23 10:36 39.863613 -104.674722 197 5365ft 0kts
30-Oct-23 10:37 39.863613 -104.674722 197 5365ft 0kts
30-Oct-23 10:38 39.863613 -104.674722 197 5365ft 0kts
30-Oct-23 10:39 39.863613 -104.674722 197 5365ft 0kts
30-Oct-23 10:40 39.863613 -104.674722 197 5365ft 0kts
30-Oct-23 10:41 39.863613 -104.674722 197 5365ft 0kts
30-Oct-23 10:42 39.863613 -104.674722 197 5365ft 0kts
30-Oct-23 10:43 39.863613 -104.674722 197 5365ft 0kts
30-Oct-23 10:44 39.863897 -104.674651 193 5364ft 3kts
30-Oct-23 10:45 39.864177 -104.674190 270 5364ft 0kts
30-Oct-23 10:46 39.864177 -104.674190 270 5364ft 0kts
30-Oct-23 10:47 39.864177 -104.674190 270 5364ft 0kts
30-Oct-23 10:48 39.864177 -104.674190 270 5364ft 0kts
30-Oct-23 10:49 39.864650 -104.676367 288 5363ft 15kts
30-Oct-23 10:50 39.864808 -104.679530 265 5365ft 2kts
30-Oct-23 10:51 39.864783 -104.679606 225 5365ft 1kts
30-Oct-23 10:52 39.864790 -104.674556 91 5365ft 25kts
30-Oct-23 10:53 39.864731 -104.666439 90 5365ft 17kts
30-Oct-23 10:54 39.863618 -104.662234 181 5364ft 14kts
30-Oct-23 10:55 39.861085 -104.662010 106 5362ft 3kts
30-Oct-23 10:56 39.859161 -104.660145 180 5365ft 59kts
30-Oct-23 10:57 39.813284 -104.660735 181 6803ft 204kts
30-Oct-23 10:58 39.754518 -104.661508 182 9240ft 234kts
30-Oct-23 10:59 39.678215 -104.662464 182 9994ft 295kts
30-Oct-23 11:00 39.601021 -104.693566 211 10631ft 325kts
30-Oct-23 11:01 39.514984 -104.758606 215 12700ft 371kts
30-Oct-23 11:02 39.425851 -104.832424 215 15474ft 389kts
30-Oct-23 11:03 39.332427 -104.908464 215 18211ft 402kts
30-Oct-23 11:04 39.236572 -104.986309 216 20508ft 414kts
30-Oct-23 11:05 39.137329 -105.066207 213 22573ft 427kts
30-Oct-23 11:06 39.029027 -105.136210 210 24367ft 442kts
30-Oct-23 11:07 38.918133 -105.207030 210 25744ft 451kts
30-Oct-23 11:08 38.804675 -105.280142 210 27047ft 460kts
30-Oct-23 11:09 38.688739 -105.354558 210 28297ft 469kts
30-Oct-23 11:10 38.572514 -105.428849 210 30086ft 464kts
30-Oct-23 11:11 38.457957 -105.501858 210 31811ft 453kts
30-Oct-23 11:12 38.346135 -105.571816 210 33454ft 444kts
30-Oct-23 11:13 38.235365 -105.640450 210 34246ft 443kts
30-Oct-23 11:14 38.125805 -105.708197 211 34289ft 437kts
30-Oct-23 11:15 38.016019 -105.775844 210 34329ft 439kts
30-Oct-23 11:16 37.897348 -105.818930 199 34364ft 446kts
30-Oct-23 11:17 37.777569 -105.857653 200 34372ft 443kts
30-Oct-23 11:18 37.658529 -105.897511 200 34367ft 442kts
30-Oct-23 11:19 37.540475 -105.936999 200 34355ft 440kts
30-Oct-23 11:20 37.422301 -105.976370 201 34355ft 439kts
30-Oct-23 11:21 37.304372 -106.015530 201 34355ft 437kts
30-Oct-23 11:22 37.187124 -106.054339 201 34349ft 435kts
30-Oct-23 11:23 37.070140 -106.092941 201 34346ft 434kts
30-Oct-23 11:24 36.954193 -106.131077 202 34350ft 433kts
30-Oct-23 11:25 36.838146 -106.169122 202 34365ft 431kts
30-Oct-23 11:26 36.722219 -106.207010 202 34383ft 429kts
30-Oct-23 11:28 36.606846 -106.244597 202 34392ft 427kts
30-Oct-23 11:29 36.492694 -106.281675 202 34390ft 425kts
30-Oct-23 11:30 36.378743 -106.318570 203 34387ft 422kts
30-Oct-23 11:31 36.265309 -106.355201 203 34362ft 421kts
30-Oct-23 11:32 36.152132 -106.391630 203 34356ft 418kts
30-Oct-23 11:33 36.039688 -106.427732 203 34355ft 418kts
30-Oct-23 11:34 35.927282 -106.463699 203 34342ft 417kts
30-Oct-23 11:35 35.814729 -106.499608 203 34353ft 416kts
30-Oct-23 11:36 35.702802 -106.535202 203 34365ft 415kts
30-Oct-23 11:37 35.590787 -106.570744 203 34381ft 415kts
30-Oct-23 11:38 35.479081 -106.606083 203 34407ft 415kts
30-Oct-23 11:39 35.366928 -106.641453 203 34398ft 416kts
30-Oct-23 11:40 35.254923 -106.676669 203 34403ft 415kts
30-Oct-23 11:41 35.142830 -106.711819 203 34408ft 415kts
30-Oct-23 11:42 35.031088 -106.746758 203 34405ft 415kts
30-Oct-23 11:43 34.919164 -106.781655 203 34409ft 415kts
30-Oct-23 11:44 34.807361 -106.816418 203 34400ft 414kts
30-Oct-23 11:45 34.695610 -106.851069 203 34391ft 414kts
30-Oct-23 11:46 34.583974 -106.885590 202 34391ft 414kts
30-Oct-23 11:47 34.472169 -106.920061 202 34379ft 414kts
30-Oct-23 11:47 34.379334 -106.948610 202 34373ft 413kts
30-Oct-23 11:49 34.249198 -106.988528 202 34375ft 413kts
30-Oct-23 11:50 34.137613 -107.022652 202 34374ft 413kts
30-Oct-23 11:51 34.026000 -107.056693 202 34385ft 413kts
30-Oct-23 11:52 33.914728 -107.090530 202 34376ft 413kts
30-Oct-23 11:52 33.821726 -107.118758 202 34349ft 413kts
30-Oct-23 11:53 33.710296 -107.152482 202 34330ft 414kts
30-Oct-23 11:55 33.580077 -107.191779 202 34330ft 414kts
30-Oct-23 11:56 33.468235 -107.225435 202 34353ft 413kts
30-Oct-23 11:56 33.375237 -107.253365 201 34372ft 413kts
30-Oct-23 11:57 33.274462 -107.307320 228 34359ft 390kts
30-Oct-23 11:58 33.215951 -107.414274 241 34358ft 387kts
30-Oct-23 11:59 33.160690 -107.525551 241 34331ft 391kts
30-Oct-23 12:00 33.104638 -107.637280 240 34308ft 393kts
30-Oct-23 12:01 33.048524 -107.748699 240 34280ft 393kts
30-Oct-23 12:02 32.992344 -107.859912 240 34281ft 391kts
30-Oct-23 12:03 32.936020 -107.971088 240 34270ft 392kts
30-Oct-23 12:04 32.879704 -108.081906 240 34287ft 391kts
30-Oct-23 12:05 32.823247 -108.192671 240 34316ft 391kts
30-Oct-23 12:06 32.766769 -108.303147 240 34311ft 392kts
30-Oct-23 12:07 32.710053 -108.413757 240 34308ft 392kts
30-Oct-23 12:08 32.653040 -108.524614 240 34289ft 393kts
30-Oct-23 12:09 32.595988 -108.635220 240 34269ft 394kts
30-Oct-23 12:10 32.538480 -108.746376 240 34265ft 395kts
30-Oct-23 12:11 32.480874 -108.857394 240 34259ft 395kts
30-Oct-23 12:12 32.423254 -108.968111 240 34240ft 395kts
30-Oct-23 12:13 32.365155 -109.079420 240 31755ft 394kts
30-Oct-23 12:14 32.308283 -109.188093 240 29631ft 382kts
30-Oct-23 12:15 32.264583 -109.297635 262 27786ft 360kts
30-Oct-23 12:16 32.252951 -109.420123 263 26343ft 374kts
30-Oct-23 12:17 32.240907 -109.541584 263 24910ft 371kts
30-Oct-23 12:18 32.228547 -109.662380 263 23412ft 371kts
30-Oct-23 12:19 32.216169 -109.782335 263 21949ft 364kts
30-Oct-23 12:20 32.204333 -109.896684 264 20483ft 364kts
30-Oct-23 12:21 32.192159 -110.015466 264 18793ft 361kts
30-Oct-23 12:22 32.180095 -110.132011 264 16930ft 357kts
30-Oct-23 12:23 32.168015 -110.247805 264 15246ft 354kts
30-Oct-23 12:24 32.159227 -110.362391 275 13787ft 342kts
30-Oct-23 12:25 32.166952 -110.470578 276 14036ft 336kts
30-Oct-23 12:26 32.171734 -110.551674 275 14032ft 343kts
30-Oct-23 12:27 32.177006 -110.646434 275 13989ft 338kts
30-Oct-23 12:28 32.183096 -110.757813 275 13970ft 344kts
30-Oct-23 12:29 32.197498 -110.866715 305 13975ft 331kts
30-Oct-23 12:30 32.258038 -110.940068 316 13548ft 283kts
30-Oct-23 12:31 32.311858 -111.002862 316 11880ft 271kts
30-Oct-23 12:32 32.343473 -111.077043 249 10060ft 272kts
30-Oct-23 12:33 32.282071 -111.098879 153 8264ft 260kts
30-Oct-23 12:34 32.220575 -111.061271 137 6552ft 223kts
30-Oct-23 12:35 32.181312 -111.016559 131 5039ft 177kts
30-Oct-23 12:36 32.150742 -110.980205 133 3733ft 137kts
30-Oct-23 12:37 32.122454 -110.946894 134 2604ft 139kts
30-Oct-23 12:38 32.112306 -110.932470 315 2617ft 0kts
30-Oct-23 12:39 32.114313 -110.934839 314 2610ft 25kts
30-Oct-23 12:40 32.119330 -110.940742 314 2582ft 21kts
30-Oct-23 12:41 32.122251 -110.939418 116 2592ft 3kts
30-Oct-23 12:42 32.121726 -110.939516 192 2589ft 0kts
30-Oct-23 12:43 32.121726 -110.939516 192 2589ft 0kts
30-Oct-23 12:44 32.121726 -110.939516 192 2589ft 0kts
30-Oct-23 12:45 32.121726 -110.939516 192 2589ft 0kts
30-Oct-23 12:46 32.121726 -110.939516 192 2589ft 0kts

Navigation Log

Ident Type
Flight plan parsing failed, navigation log unavailable